sensor_id;sensor_type;location;lat;lon;timestamp;pressure;altitude;pressure_sealevel;temperature;humidity
49935;BME280;39898;41.762;26.200;2023-01-29T14:52:59;101278.63;;;5.60;83.07
49935;BME280;39898;41.762;26.200;2023-01-29T14:55:37;101282.78;;;5.46;83.96
49935;BME280;39898;41.762;26.200;2023-01-29T14:58:05;101283.66;;;5.45;84.05
49935;BME280;39898;41.762;26.200;2023-01-29T15:00:36;101286.34;;;5.52;84.01
49935;BME280;39898;41.762;26.200;2023-01-29T15:03:04;101288.19;;;5.59;83.67
49935;BME280;39898;41.762;26.200;2023-01-29T15:05:37;101287.41;;;5.65;84.16
49935;BME280;39898;41.762;26.200;2023-01-29T15:08:24;101291.81;;;5.69;83.43
49935;BME280;39898;41.762;26.200;2023-01-29T15:10:56;101287.38;;;5.63;83.84
49935;BME280;39898;41.762;26.200;2023-01-29T15:14:01;101288.94;;;5.52;84.25
49935;BME280;39898;41.762;26.200;2023-01-29T15:16:32;101294.19;;;5.54;84.11
49935;BME280;39898;41.762;26.200;2023-01-29T15:19:10;101290.78;;;5.59;84.61
49935;BME280;39898;41.762;26.200;2023-01-29T15:21:39;101304.56;;;5.52;84.55
49935;BME280;39898;41.762;26.200;2023-01-29T15:24:25;101308.09;;;5.54;84.86
49935;BME280;39898;41.762;26.200;2023-01-29T15:26:52;101299.41;;;5.55;85.46
49935;BME280;39898;41.762;26.200;2023-01-29T15:29:23;101295.13;;;5.59;85.04
49935;BME280;39898;41.762;26.200;2023-01-29T15:31:51;101303.81;;;5.59;85.00
49935;BME280;39898;41.762;26.200;2023-01-29T15:34:17;101305.56;;;5.60;85.21
49935;BME280;39898;41.762;26.200;2023-01-29T15:36:44;101313.44;;;5.63;84.95
49935;BME280;39898;41.762;26.200;2023-01-29T15:39:13;101309.06;;;5.62;84.74
49935;BME280;39898;41.762;26.200;2023-01-29T15:41:41;101302.81;;;5.50;84.66
49935;BME280;39898;41.762;26.200;2023-01-29T15:44:14;101304.66;;;5.57;84.88
49935;BME280;39898;41.762;26.200;2023-01-29T15:46:46;101309.06;;;5.62;85.55
49935;BME280;39898;41.762;26.200;2023-01-29T15:49:19;101319.41;;;5.56;85.34
49935;BME280;39898;41.762;26.200;2023-01-29T15:51:48;101321.13;;;5.54;85.40
49935;BME280;39898;41.762;26.200;2023-01-29T15:54:22;101316.81;;;5.58;85.44
49935;BME280;39898;41.762;26.200;2023-01-29T15:56:50;101319.41;;;5.55;85.41
49935;BME280;39898;41.762;26.200;2023-01-29T15:59:28;101315.00;;;5.52;85.55
49935;BME280;39898;41.762;26.200;2023-01-29T16:01:56;101316.53;;;5.38;85.20
49935;BME280;39898;41.762;26.200;2023-01-29T16:04:23;101321.53;;;5.26;85.44
49935;BME280;39898;41.762;26.200;2023-01-29T16:06:52;101326.81;;;5.31;85.91
49935;BME280;39898;41.762;26.200;2023-01-29T16:09:20;101318.13;;;5.29;85.69
49935;BME280;39898;41.762;26.200;2023-01-29T16:11:49;101335.56;;;5.34;85.66
49935;BME280;39898;41.762;26.200;2023-01-29T16:14:18;101338.25;;;5.39;85.81
49935;BME280;39898;41.762;26.200;2023-01-29T16:16:45;101341.72;;;5.41;85.95
49935;BME280;39898;41.762;26.200;2023-01-29T16:21:48;101346.88;;;5.36;86.38
49935;BME280;39898;41.762;26.200;2023-01-29T16:24:15;101343.47;;;5.39;86.52
49935;BME280;39898;41.762;26.200;2023-01-29T16:26:48;101345.25;;;5.43;86.54
49935;BME280;39898;41.762;26.200;2023-01-29T16:29:16;101348.66;;;5.37;86.13
49935;BME280;39898;41.762;26.200;2023-01-29T16:31:44;101359.94;;;5.39;86.86
49935;BME280;39898;41.762;26.200;2023-01-29T16:37:01;101354.56;;;5.27;86.54
49935;BME280;39898;41.762;26.200;2023-01-29T16:44:49;101357.88;;;5.17;86.89
49935;BME280;39898;41.762;26.200;2023-01-29T16:47:21;101364.53;;;5.03;88.23
49935;BME280;39898;41.762;26.200;2023-01-29T16:49:49;101355.38;;;5.25;88.18
49935;BME280;39898;41.762;26.200;2023-01-29T16:52:26;101354.66;;;5.33;85.15
49935;BME280;39898;41.762;26.200;2023-01-29T16:54:59;101354.41;;;5.18;84.91
49935;BME280;39898;41.762;26.200;2023-01-29T16:57:27;101355.44;;;5.29;84.82
49935;BME280;39898;41.762;26.200;2023-01-29T16:59:55;101354.53;;;5.26;84.37
49935;BME280;39898;41.762;26.200;2023-01-29T17:04:50;101365.84;;;4.77;87.68
49935;BME280;39898;41.762;26.200;2023-01-29T17:07:18;101361.34;;;4.70;87.25
49935;BME280;39898;41.762;26.200;2023-01-29T17:09:48;101361.28;;;4.64;86.73
49935;BME280;39898;41.762;26.200;2023-01-29T17:12:18;101378.38;;;4.53;85.15
49935;BME280;39898;41.762;26.200;2023-01-29T17:15:26;101369.84;;;4.60;84.19
49935;BME280;39898;41.762;26.200;2023-01-29T17:17:37;101364.81;;;4.69;83.98
49935;BME280;39898;41.762;26.200;2023-01-29T17:20:10;101369.91;;;4.63;84.02
49935;BME280;39898;41.762;26.200;2023-01-29T17:22:36;101374.13;;;4.56;84.37
49935;BME280;39898;41.762;26.200;2023-01-29T17:25:05;101369.84;;;4.58;84.38
49935;BME280;39898;41.762;26.200;2023-01-29T17:27:32;101380.03;;;4.48;83.88
49935;BME280;39898;41.762;26.200;2023-01-29T17:29:59;101379.28;;;4.55;84.01
49935;BME280;39898;41.762;26.200;2023-01-29T17:32:25;101374.94;;;4.54;84.12
49935;BME280;39898;41.762;26.200;2023-01-29T17:35:11;101381.00;;;4.54;83.80
49935;BME280;39898;41.762;26.200;2023-01-29T17:37:38;101384.47;;;4.53;83.50
49935;BME280;39898;41.762;26.200;2023-01-29T17:40:09;101384.47;;;4.53;83.04
49935;BME280;39898;41.762;26.200;2023-01-29T17:42:42;101377.94;;;4.30;84.33
49935;BME280;39898;41.762;26.200;2023-01-29T17:45:09;101385.59;;;4.24;84.70
49935;BME280;39898;41.762;26.200;2023-01-29T17:47:36;101382.25;;;4.30;84.25
49935;BME280;39898;41.762;26.200;2023-01-29T17:50:08;101384.78;;;4.27;84.94
49935;BME280;39898;41.762;26.200;2023-01-29T17:52:38;101375.06;;;4.18;85.73
49935;BME280;39898;41.762;26.200;2023-01-29T17:55:05;101375.16;;;4.21;85.49
49935;BME280;39898;41.762;26.200;2023-01-29T17:57:32;101374.31;;;4.22;85.37
49935;BME280;39898;41.762;26.200;2023-01-29T17:59:58;101374.06;;;4.10;85.44
49935;BME280;39898;41.762;26.200;2023-01-29T18:02:25;101367.94;;;4.08;86.39
49935;BME280;39898;41.762;26.200;2023-01-29T18:04:54;101380.88;;;4.05;86.29
49935;BME280;39898;41.762;26.200;2023-01-29T18:07:21;101379.13;;;4.04;86.56
49935;BME280;39898;41.762;26.200;2023-01-29T18:09:48;101381.91;;;4.13;86.47
49935;BME280;39898;41.762;26.200;2023-01-29T18:12:14;101378.38;;;4.10;86.14
49935;BME280;39898;41.762;26.200;2023-01-29T18:14:41;101374.84;;;4.06;85.45
49935;BME280;39898;41.762;26.200;2023-01-29T18:17:07;101377.44;;;4.06;84.94
49935;BME280;39898;41.762;26.200;2023-01-29T18:19:34;101384.63;;;4.18;84.33
49935;BME280;39898;41.762;26.200;2023-01-29T18:22:00;101376.34;;;3.97;84.60
49935;BME280;39898;41.762;26.200;2023-01-29T18:24:27;101384.47;;;4.10;84.86
49935;BME280;39898;41.762;26.200;2023-01-29T18:26:54;101383.41;;;4.01;84.84
49935;BME280;39898;41.762;26.200;2023-01-29T18:29:20;101380.53;;;3.89;85.49
49935;BME280;39898;41.762;26.200;2023-01-29T18:31:47;101380.22;;;3.75;85.57
49935;BME280;39898;41.762;26.200;2023-01-29T18:34:14;101376.13;;;3.85;85.57
49935;BME280;39898;41.762;26.200;2023-01-29T18:36:41;101380.25;;;3.77;85.32
49935;BME280;39898;41.762;26.200;2023-01-29T18:39:14;101379.38;;;3.76;86.45
49935;BME280;39898;41.762;26.200;2023-01-29T18:41:41;101373.16;;;3.70;86.71
49935;BME280;39898;41.762;26.200;2023-01-29T18:44:11;101376.47;;;3.63;86.66
49935;BME280;39898;41.762;26.200;2023-01-29T18:46:37;101373.81;;;3.60;87.20
49935;BME280;39898;41.762;26.200;2023-01-29T18:49:04;101361.88;;;3.68;87.11
49935;BME280;39898;41.762;26.200;2023-01-29T18:51:30;101368.81;;;3.69;86.87
49935;BME280;39898;41.762;26.200;2023-01-29T18:53:57;101378.28;;;3.67;86.95
49935;BME280;39898;41.762;26.200;2023-01-29T18:56:24;101377.53;;;3.71;87.31
49935;BME280;39898;41.762;26.200;2023-01-29T18:58:53;101379.19;;;3.67;87.40
49935;BME280;39898;41.762;26.200;2023-01-29T19:01:21;101380.03;;;3.66;87.49
49935;BME280;39898;41.762;26.200;2023-01-29T19:03:47;101375.53;;;3.61;87.83
49935;BME280;39898;41.762;26.200;2023-01-29T19:06:14;101371.69;;;3.81;87.15
49935;BME280;39898;41.762;26.200;2023-01-29T19:08:40;101370.06;;;3.86;86.71
49935;BME280;39898;41.762;26.200;2023-01-29T19:11:08;101380.03;;;3.66;86.43
49935;BME280;39898;41.762;26.200;2023-01-29T19:13:37;101380.56;;;3.52;86.51
49935;BME280;39898;41.762;26.200;2023-01-29T19:16:07;101383.34;;;3.59;86.45
49935;BME280;39898;41.762;26.200;2023-01-29T19:18:34;101383.19;;;3.53;86.28
49935;BME280;39898;41.762;26.200;2023-01-29T19:21:04;101384.94;;;3.54;86.26
49935;BME280;39898;41.762;26.200;2023-01-29T19:23:31;101383.34;;;3.59;85.77
49935;BME280;39898;41.762;26.200;2023-01-29T19:25:58;101388.34;;;3.52;86.09
49935;BME280;39898;41.762;26.200;2023-01-29T19:28:24;101386.56;;;3.49;86.70
49935;BME280;39898;41.762;26.200;2023-01-29T19:30:51;101387.44;;;3.51;86.68
49935;BME280;39898;41.762;26.200;2023-01-29T19:33:17;101387.34;;;3.47;86.21
49935;BME280;39898;41.762;26.200;2023-01-29T19:35:44;101394.34;;;3.49;86.71
49935;BME280;39898;41.762;26.200;2023-01-29T19:38:10;101392.44;;;3.44;86.74
49935;BME280;39898;41.762;26.200;2023-01-29T19:40:37;101395.13;;;3.47;86.75
49935;BME280;39898;41.762;26.200;2023-01-29T19:43:04;101395.94;;;3.44;86.70
49935;BME280;39898;41.762;26.200;2023-01-29T19:45:32;101404.81;;;3.54;87.11
49935;BME280;39898;41.762;26.200;2023-01-29T19:48:15;101409.03;;;3.49;86.98
49935;BME280;39898;41.762;26.200;2023-01-29T19:50:53;101402.94;;;3.48;87.29
49935;BME280;39898;41.762;26.200;2023-01-29T19:53:19;101398.41;;;3.40;87.15
49935;BME280;39898;41.762;26.200;2023-01-29T19:55:46;101405.53;;;3.48;88.10
49935;BME280;39898;41.762;26.200;2023-01-29T19:58:13;101405.91;;;3.63;88.14
49935;BME280;39898;41.762;26.200;2023-01-29T20:00:39;101402.50;;;3.66;88.00
49935;BME280;39898;41.762;26.200;2023-01-29T20:03:06;101404.06;;;3.58;87.74
49935;BME280;39898;41.762;26.200;2023-01-29T20:05:34;101406.59;;;3.55;88.00
49935;BME280;39898;41.762;26.200;2023-01-29T20:08:02;101400.16;;;3.41;88.19
49935;BME280;39898;41.762;26.200;2023-01-29T20:10:29;101399.38;;;3.43;88.41
49935;BME280;39898;41.762;26.200;2023-01-29T20:12:55;101401.97;;;3.43;88.87
49935;BME280;39898;41.762;26.200;2023-01-29T20:15:22;101402.69;;;3.36;89.02
49935;BME280;39898;41.762;26.200;2023-01-29T20:17:48;101407.03;;;3.37;89.55
49935;BME280;39898;41.762;26.200;2023-01-29T20:20:15;101403.69;;;3.43;89.70
49935;BME280;39898;41.762;26.200;2023-01-29T20:22:43;101405.19;;;3.33;89.88
49935;BME280;39898;41.762;26.200;2023-01-29T20:25:09;101407.84;;;3.35;90.21
49935;BME280;39898;41.762;26.200;2023-01-29T20:27:39;101409.66;;;3.39;90.10
49935;BME280;39898;41.762;26.200;2023-01-29T20:30:05;101412.41;;;3.45;90.11
49935;BME280;39898;41.762;26.200;2023-01-29T20:32:33;101416.84;;;3.50;89.97
49935;BME280;39898;41.762;26.200;2023-01-29T20:35:00;101411.31;;;3.37;89.98
49935;BME280;39898;41.762;26.200;2023-01-29T20:37:27;101415.72;;;3.41;90.84
49935;BME280;39898;41.762;26.200;2023-01-29T20:39:53;101412.25;;;3.39;90.86
49935;BME280;39898;41.762;26.200;2023-01-29T20:42:20;101410.38;;;3.33;90.89
49935;BME280;39898;41.762;26.200;2023-01-29T20:44:46;101408.69;;;3.35;91.16
49935;BME280;39898;41.762;26.200;2023-01-29T20:47:13;101414.09;;;3.44;90.69
49935;BME280;39898;41.762;26.200;2023-01-29T20:49:39;101415.00;;;3.45;90.86
49935;BME280;39898;41.762;26.200;2023-01-29T20:52:06;101418.59;;;3.51;90.82
49935;BME280;39898;41.762;26.200;2023-01-29T20:54:33;101417.50;;;3.42;90.31
49935;BME280;39898;41.762;26.200;2023-01-29T20:57:00;101416.75;;;3.46;90.56
49935;BME280;39898;41.762;26.200;2023-01-29T20:59:27;101416.94;;;3.53;90.37
49935;BME280;39898;41.762;26.200;2023-01-29T21:01:54;101423.16;;;3.61;90.52
49935;BME280;39898;41.762;26.200;2023-01-29T21:04:21;101422.97;;;3.89;89.63
49935;BME280;39898;41.762;26.200;2023-01-29T21:06:47;101419.69;;;3.98;88.66
49935;BME280;39898;41.762;26.200;2023-01-29T21:09:14;101417.31;;;4.08;88.59
49935;BME280;39898;41.762;26.200;2023-01-29T21:11:41;101418.06;;;4.03;87.14
49935;BME280;39898;41.762;26.200;2023-01-29T21:14:10;101424.28;;;4.09;88.12
49935;BME280;39898;41.762;26.200;2023-01-29T21:16:36;101417.28;;;4.07;87.02
49935;BME280;39898;41.762;26.200;2023-01-29T21:19:03;101415.22;;;3.91;88.25
49935;BME280;39898;41.762;26.200;2023-01-29T21:21:30;101409.88;;;3.85;88.41
49935;BME280;39898;41.762;26.200;2023-01-29T21:23:56;101414.13;;;3.81;89.13
49935;BME280;39898;41.762;26.200;2023-01-29T21:26:23;101406.56;;;3.92;89.24
49935;BME280;39898;41.762;26.200;2023-01-29T21:28:51;101411.97;;;4.01;88.74
49935;BME280;39898;41.762;26.200;2023-01-29T21:31:17;101411.41;;;4.14;88.15
49935;BME280;39898;41.762;26.200;2023-01-29T21:33:44;101406.41;;;4.24;87.70
49935;BME280;39898;41.762;26.200;2023-01-29T21:36:11;101405.88;;;4.40;87.03
49935;BME280;39898;41.762;26.200;2023-01-29T21:38:38;101407.72;;;4.46;86.78
49935;BME280;39898;41.762;26.200;2023-01-29T21:41:06;101402.97;;;4.25;86.93
49935;BME280;39898;41.762;26.200;2023-01-29T21:43:34;101402.19;;;4.29;86.64
49935;BME280;39898;41.762;26.200;2023-01-29T21:46:01;101394.03;;;4.13;86.62
49935;BME280;39898;41.762;26.200;2023-01-29T21:48:37;101394.06;;;4.14;86.62
49935;BME280;39898;41.762;26.200;2023-01-29T21:51:04;101394.69;;;4.03;87.14
49935;BME280;39898;41.762;26.200;2023-01-29T21:53:30;101388.28;;;3.87;87.84
49935;BME280;39898;41.762;26.200;2023-01-29T21:55:58;101397.44;;;4.10;88.06
49935;BME280;39898;41.762;26.200;2023-01-29T21:58:25;101390.88;;;4.27;87.30
49935;BME280;39898;41.762;26.200;2023-01-29T22:00:51;101393.31;;;4.20;87.01
49935;BME280;39898;41.762;26.200;2023-01-29T22:03:18;101389.25;;;3.91;87.49
49935;BME280;39898;41.762;26.200;2023-01-29T22:05:44;101386.50;;;3.85;88.15
49935;BME280;39898;41.762;26.200;2023-01-29T22:08:11;101391.44;;;4.13;87.97
49935;BME280;39898;41.762;26.200;2023-01-29T22:10:37;101394.66;;;4.01;87.82
49935;BME280;39898;41.762;26.200;2023-01-29T22:13:04;101386.47;;;3.83;88.43
49935;BME280;39898;41.762;26.200;2023-01-29T22:15:30;101386.16;;;4.10;88.36
49935;BME280;39898;41.762;26.200;2023-01-29T22:17:57;101383.97;;;4.28;86.68
49935;BME280;39898;41.762;26.200;2023-01-29T22:20:24;101381.09;;;4.16;85.94
49935;BME280;39898;41.762;26.200;2023-01-29T22:22:56;101382.13;;;3.84;87.40
49935;BME280;39898;41.762;26.200;2023-01-29T22:25:23;101382.19;;;3.87;88.25
49935;BME280;39898;41.762;26.200;2023-01-29T22:27:50;101380.16;;;3.74;88.79
49935;BME280;39898;41.762;26.200;2023-01-29T22:30:16;101378.13;;;3.61;89.37
49935;BME280;39898;41.762;26.200;2023-01-29T22:32:44;101381.16;;;3.79;89.57
49935;BME280;39898;41.762;26.200;2023-01-29T22:35:10;101374.31;;;3.82;88.94
49935;BME280;39898;41.762;26.200;2023-01-29T22:37:37;101379.84;;;3.59;88.95
49935;BME280;39898;41.762;26.200;2023-01-29T22:40:03;101375.19;;;3.44;89.82
49935;BME280;39898;41.762;26.200;2023-01-29T22:42:30;101379.56;;;3.47;90.31
49935;BME280;39898;41.762;26.200;2023-01-29T22:44:56;101377.06;;;3.51;90.14
49935;BME280;39898;41.762;26.200;2023-01-29T22:47:23;101372.50;;;3.41;90.99
49935;BME280;39898;41.762;26.200;2023-01-29T22:49:49;101373.94;;;3.66;90.93
49935;BME280;39898;41.762;26.200;2023-01-29T22:52:20;101370.47;;;3.65;89.80
49935;BME280;39898;41.762;26.200;2023-01-29T22:54:47;101371.06;;;3.54;89.59
49935;BME280;39898;41.762;26.200;2023-01-29T22:57:14;101365.44;;;3.36;89.81
49935;BME280;39898;41.762;26.200;2023-01-29T22:59:40;101364.56;;;3.35;90.14
49935;BME280;39898;41.762;26.200;2023-01-29T23:02:07;101367.03;;;3.31;90.15
49935;BME280;39898;41.762;26.200;2023-01-29T23:04:34;101362.63;;;3.27;90.87
49935;BME280;39898;41.762;26.200;2023-01-29T23:07:00;101359.31;;;3.32;90.80
49935;BME280;39898;41.762;26.200;2023-01-29T23:09:27;101362.91;;;3.37;90.62
49935;BME280;39898;41.762;26.200;2023-01-29T23:11:54;101363.94;;;3.45;91.38
49935;BME280;39898;41.762;26.200;2023-01-29T23:14:20;101356.94;;;3.41;90.18
49935;BME280;39898;41.762;26.200;2023-01-29T23:16:47;101353.41;;;3.39;90.40
49935;BME280;39898;41.762;26.200;2023-01-29T23:19:13;101356.88;;;3.40;89.95
49935;BME280;39898;41.762;26.200;2023-01-29T23:21:40;101346.44;;;3.37;90.24
49935;BME280;39898;41.762;26.200;2023-01-29T23:24:06;101348.22;;;3.39;90.46
49935;BME280;39898;41.762;26.200;2023-01-29T23:26:33;101345.66;;;3.41;90.85
49935;BME280;39898;41.762;26.200;2023-01-29T23:29:18;101344.38;;;3.59;90.68
49935;BME280;39898;41.762;26.200;2023-01-29T23:31:45;101345.78;;;3.45;90.24
49935;BME280;39898;41.762;26.200;2023-01-29T23:34:12;101334.88;;;3.61;90.58
49935;BME280;39898;41.762;26.200;2023-01-29T23:36:39;101345.09;;;3.54;89.71
49935;BME280;39898;41.762;26.200;2023-01-29T23:39:06;101346.91;;;3.56;89.90
49935;BME280;39898;41.762;26.200;2023-01-29T23:41:32;101334.25;;;3.33;89.93
49935;BME280;39898;41.762;26.200;2023-01-29T23:43:59;101333.31;;;3.31;90.73
49935;BME280;39898;41.762;26.200;2023-01-29T23:46:25;101330.78;;;3.34;90.59
49935;BME280;39898;41.762;26.200;2023-01-29T23:48:52;101329.56;;;3.18;90.55
49935;BME280;39898;41.762;26.200;2023-01-29T23:51:18;101334.31;;;3.36;90.23
49935;BME280;39898;41.762;26.200;2023-01-29T23:53:45;101334.59;;;3.48;90.28
49935;BME280;39898;41.762;26.200;2023-01-29T23:56:11;101334.19;;;3.68;89.61
49935;BME280;39898;41.762;26.200;2023-01-29T23:58:38;101334.00;;;3.59;88.96
